KATY/ATY METAR and TAF weather

Enter ICAO airport designator
Station Type Date Time Source
KATY METAR 2024/04/23 03:53 UTC NOAA

KATY 230353Z AUTO 25009KT 10SM BKN110 09/M03 A2969 RMK AO2 SLP058 T00941033


Station Type Date Time Source
KATY Decoded METAR 2024/04/23 03:53 UTC NOAA

WATERTOWN MUNICIPAL AIRPORT, SD, United States (KATY) 44-54N 097-09W 532M
Apr 22, 2024 - 11:53 PM EDT / 2024.04.23 0353 UTC
Wind: from the WSW (250 degrees) at 10 MPH (9 KT):0
Visibility: 10 mile(s):0
Sky conditions: mostly cloudy
Temperature: 48.9 F (9.4 C)
Dew Point: 26.1 F (-3.3 C)
Relative Humidity: 40%
Pressure (altimeter): 29.69 in. Hg (1005 hPa)
ob: KATY 230353Z AUTO 25009KT 10SM BKN110 09/M03 A2969 RMK AO2 SLP058 T00941033
cycle: 4

Station Type Date Time Source
KATY TAF 2024/04/22 18:33 UTC NOAA